sensor_id;sensor_type;location;lat;lon;timestamp;temperature;humidity
75500;DHT22;64076;51.466;7.260;2023-04-24T00:01:54;22.30;41.80
75500;DHT22;64076;51.466;7.260;2023-04-24T00:04:21;22.30;41.80
75500;DHT22;64076;51.466;7.260;2023-04-24T00:09:19;22.40;41.70
75500;DHT22;64076;51.466;7.260;2023-04-24T00:11:45;22.30;41.70
75500;DHT22;64076;51.466;7.260;2023-04-24T00:14:10;22.30;41.70
75500;DHT22;64076;51.466;7.260;2023-04-24T00:16:36;22.30;41.60
75500;DHT22;64076;51.466;7.260;2023-04-24T00:19:01;22.40;41.70
75500;DHT22;64076;51.466;7.260;2023-04-24T00:21:27;22.30;41.60
75500;DHT22;64076;51.466;7.260;2023-04-24T00:23:53;22.30;41.60
75500;DHT22;64076;51.466;7.260;2023-04-24T00:26:18;22.30;41.60
75500;DHT22;64076;51.466;7.260;2023-04-24T00:28:44;22.30;41.60
75500;DHT22;64076;51.466;7.260;2023-04-24T00:31:10;22.30;41.60
75500;DHT22;64076;51.466;7.260;2023-04-24T00:33:35;22.30;41.60
75500;DHT22;64076;51.466;7.260;2023-04-24T00:36:01;22.30;41.50
75500;DHT22;64076;51.466;7.260;2023-04-24T00:38:27;22.30;41.50
75500;DHT22;64076;51.466;7.260;2023-04-24T00:40:52;22.30;41.50
75500;DHT22;64076;51.466;7.260;2023-04-24T00:43:19;22.30;41.50
75500;DHT22;64076;51.466;7.260;2023-04-24T00:45:45;22.30;41.50
75500;DHT22;64076;51.466;7.260;2023-04-24T00:48:11;22.30;41.40
75500;DHT22;64076;51.466;7.260;2023-04-24T00:50:38;22.30;41.40
75500;DHT22;64076;51.466;7.260;2023-04-24T00:53:03;22.30;41.40
75500;DHT22;64076;51.466;7.260;2023-04-24T00:55:29;22.30;41.40
75500;DHT22;64076;51.466;7.260;2023-04-24T00:57:55;22.30;41.40
75500;DHT22;64076;51.466;7.260;2023-04-24T01:00:21;22.30;41.30
75500;DHT22;64076;51.466;7.260;2023-04-24T01:02:47;22.30;41.30
75500;DHT22;64076;51.466;7.260;2023-04-24T01:05:14;22.30;41.30
75500;DHT22;64076;51.466;7.260;2023-04-24T01:07:41;22.30;41.30
75500;DHT22;64076;51.466;7.260;2023-04-24T01:10:09;22.30;41.30
75500;DHT22;64076;51.466;7.260;2023-04-24T01:12:35;22.30;41.30
75500;DHT22;64076;51.466;7.260;2023-04-24T01:15:01;22.30;41.20
75500;DHT22;64076;51.466;7.260;2023-04-24T01:17:27;22.30;41.20
75500;DHT22;64076;51.466;7.260;2023-04-24T01:19:52;22.30;41.20
75500;DHT22;64076;51.466;7.260;2023-04-24T01:22:22;22.30;41.20
75500;DHT22;64076;51.466;7.260;2023-04-24T01:24:48;22.20;41.20
75500;DHT22;64076;51.466;7.260;2023-04-24T01:27:14;22.20;41.10
75500;DHT22;64076;51.466;7.260;2023-04-24T01:29:40;22.30;41.10
75500;DHT22;64076;51.466;7.260;2023-04-24T01:32:06;22.20;41.10
75500;DHT22;64076;51.466;7.260;2023-04-24T01:34:32;22.30;41.10
75500;DHT22;64076;51.466;7.260;2023-04-24T01:36:58;22.20;41.10
75500;DHT22;64076;51.466;7.260;2023-04-24T01:39:24;22.20;41.10
75500;DHT22;64076;51.466;7.260;2023-04-24T01:41:51;22.20;41.00
75500;DHT22;64076;51.466;7.260;2023-04-24T01:44:18;22.20;41.00
75500;DHT22;64076;51.466;7.260;2023-04-24T01:46:44;22.20;41.00
75500;DHT22;64076;51.466;7.260;2023-04-24T01:49:10;22.30;41.00
75500;DHT22;64076;51.466;7.260;2023-04-24T01:51:35;22.20;40.90
75500;DHT22;64076;51.466;7.260;2023-04-24T01:54:01;22.20;40.90
75500;DHT22;64076;51.466;7.260;2023-04-24T01:56:29;22.20;40.90
75500;DHT22;64076;51.466;7.260;2023-04-24T01:58:55;22.20;40.90
75500;DHT22;64076;51.466;7.260;2023-04-24T02:01:21;22.20;40.90
75500;DHT22;64076;51.466;7.260;2023-04-24T02:03:48;22.20;40.90
75500;DHT22;64076;51.466;7.260;2023-04-24T02:06:14;22.20;40.90
75500;DHT22;64076;51.466;7.260;2023-04-24T02:08:39;22.20;40.90
75500;DHT22;64076;51.466;7.260;2023-04-24T02:11:05;22.20;40.80
75500;DHT22;64076;51.466;7.260;2023-04-24T02:13:31;22.20;40.80
75500;DHT22;64076;51.466;7.260;2023-04-24T02:15:58;22.20;40.80
75500;DHT22;64076;51.466;7.260;2023-04-24T02:18:23;22.20;40.80
75500;DHT22;64076;51.466;7.260;2023-04-24T02:20:49;22.20;40.80
75500;DHT22;64076;51.466;7.260;2023-04-24T02:23:15;22.20;40.80
75500;DHT22;64076;51.466;7.260;2023-04-24T02:25:40;22.20;40.70
75500;DHT22;64076;51.466;7.260;2023-04-24T02:28:06;22.20;40.70
75500;DHT22;64076;51.466;7.260;2023-04-24T02:30:32;22.20;40.70
75500;DHT22;64076;51.466;7.260;2023-04-24T02:32:57;22.20;40.70
75500;DHT22;64076;51.466;7.260;2023-04-24T02:35:23;22.20;40.70
75500;DHT22;64076;51.466;7.260;2023-04-24T02:37:48;22.20;40.70
75500;DHT22;64076;51.466;7.260;2023-04-24T02:40:14;22.20;40.60
75500;DHT22;64076;51.466;7.260;2023-04-24T02:42:39;22.20;40.60
75500;DHT22;64076;51.466;7.260;2023-04-24T02:45:05;22.20;40.60
75500;DHT22;64076;51.466;7.260;2023-04-24T02:47:31;22.20;40.60
75500;DHT22;64076;51.466;7.260;2023-04-24T02:49:57;22.20;40.50
75500;DHT22;64076;51.466;7.260;2023-04-24T02:52:22;22.20;40.50
75500;DHT22;64076;51.466;7.260;2023-04-24T02:54:48;22.20;40.50
75500;DHT22;64076;51.466;7.260;2023-04-24T02:57:13;22.20;40.60
75500;DHT22;64076;51.466;7.260;2023-04-24T02:59:39;22.20;40.50
75500;DHT22;64076;51.466;7.260;2023-04-24T03:02:04;22.10;40.50
75500;DHT22;64076;51.466;7.260;2023-04-24T03:04:31;22.20;40.50
75500;DHT22;64076;51.466;7.260;2023-04-24T03:06:57;22.10;40.50
75500;DHT22;64076;51.466;7.260;2023-04-24T03:09:23;22.10;40.40
75500;DHT22;64076;51.466;7.260;2023-04-24T03:11:49;22.10;40.40
75500;DHT22;64076;51.466;7.260;2023-04-24T03:14:15;22.10;40.50
75500;DHT22;64076;51.466;7.260;2023-04-24T03:16:40;22.10;40.40
75500;DHT22;64076;51.466;7.260;2023-04-24T03:19:06;22.10;40.40
75500;DHT22;64076;51.466;7.260;2023-04-24T03:21:31;22.10;40.40
75500;DHT22;64076;51.466;7.260;2023-04-24T03:23:57;22.10;40.40
75500;DHT22;64076;51.466;7.260;2023-04-24T03:26:23;22.10;40.40
75500;DHT22;64076;51.466;7.260;2023-04-24T03:28:48;22.10;40.40
75500;DHT22;64076;51.466;7.260;2023-04-24T03:31:14;22.10;40.40
75500;DHT22;64076;51.466;7.260;2023-04-24T03:33:40;22.10;40.30
75500;DHT22;64076;51.466;7.260;2023-04-24T03:36:06;22.10;40.40
75500;DHT22;64076;51.466;7.260;2023-04-24T03:38:32;22.10;40.30
75500;DHT22;64076;51.466;7.260;2023-04-24T03:40:57;22.10;40.30
75500;DHT22;64076;51.466;7.260;2023-04-24T03:43:23;22.10;40.30
75500;DHT22;64076;51.466;7.260;2023-04-24T03:45:48;22.10;40.30
75500;DHT22;64076;51.466;7.260;2023-04-24T03:48:14;22.10;40.30
75500;DHT22;64076;51.466;7.260;2023-04-24T03:50:40;22.10;40.30
75500;DHT22;64076;51.466;7.260;2023-04-24T03:53:06;22.10;40.20
75500;DHT22;64076;51.466;7.260;2023-04-24T03:55:32;22.10;40.30
75500;DHT22;64076;51.466;7.260;2023-04-24T03:57:57;22.10;40.30
75500;DHT22;64076;51.466;7.260;2023-04-24T04:00:23;22.10;40.30
75500;DHT22;64076;51.466;7.260;2023-04-24T04:02:48;22.10;40.30
75500;DHT22;64076;51.466;7.260;2023-04-24T04:05:14;22.10;40.20
75500;DHT22;64076;51.466;7.260;2023-04-24T04:07:39;22.10;40.20
75500;DHT22;64076;51.466;7.260;2023-04-24T04:10:05;22.10;40.20
75500;DHT22;64076;51.466;7.260;2023-04-24T04:12:32;22.10;40.20
75500;DHT22;64076;51.466;7.260;2023-04-24T04:14:58;22.10;40.20
75500;DHT22;64076;51.466;7.260;2023-04-24T04:17:23;22.00;40.20
75500;DHT22;64076;51.466;7.260;2023-04-24T04:19:49;22.00;40.10
75500;DHT22;64076;51.466;7.260;2023-04-24T04:22:15;22.00;40.10
75500;DHT22;64076;51.466;7.260;2023-04-24T04:24:41;22.00;40.10
75500;DHT22;64076;51.466;7.260;2023-04-24T04:27:07;22.10;40.10
75500;DHT22;64076;51.466;7.260;2023-04-24T04:29:33;22.00;40.10
75500;DHT22;64076;51.466;7.260;2023-04-24T04:31:59;22.00;40.00
75500;DHT22;64076;51.466;7.260;2023-04-24T04:34:25;22.00;40.10
75500;DHT22;64076;51.466;7.260;2023-04-24T04:36:51;22.00;40.10
75500;DHT22;64076;51.466;7.260;2023-04-24T04:39:16;22.00;40.00
75500;DHT22;64076;51.466;7.260;2023-04-24T04:41:44;22.00;40.00
75500;DHT22;64076;51.466;7.260;2023-04-24T04:44:09;22.00;40.00
75500;DHT22;64076;51.466;7.260;2023-04-24T04:46:35;22.00;40.00
75500;DHT22;64076;51.466;7.260;2023-04-24T04:49:02;22.00;40.00
75500;DHT22;64076;51.466;7.260;2023-04-24T04:51:28;22.00;39.90
75500;DHT22;64076;51.466;7.260;2023-04-24T04:53:53;22.00;40.00
75500;DHT22;64076;51.466;7.260;2023-04-24T04:56:19;22.10;40.00
75500;DHT22;64076;51.466;7.260;2023-04-24T04:58:45;22.00;39.90
75500;DHT22;64076;51.466;7.260;2023-04-24T05:01:10;22.00;39.90
75500;DHT22;64076;51.466;7.260;2023-04-24T05:03:36;22.00;39.90
75500;DHT22;64076;51.466;7.260;2023-04-24T05:06:02;22.00;39.90
75500;DHT22;64076;51.466;7.260;2023-04-24T05:08:27;22.00;39.90
75500;DHT22;64076;51.466;7.260;2023-04-24T05:10:54;22.00;39.90
75500;DHT22;64076;51.466;7.260;2023-04-24T05:13:20;22.00;39.80
75500;DHT22;64076;51.466;7.260;2023-04-24T05:15:45;22.00;39.60
75500;DHT22;64076;51.466;7.260;2023-04-24T05:18:11;22.00;39.50
75500;DHT22;64076;51.466;7.260;2023-04-24T05:20:36;22.00;39.30
75500;DHT22;64076;51.466;7.260;2023-04-24T05:23:02;22.00;39.00
75500;DHT22;64076;51.466;7.260;2023-04-24T05:25:27;22.00;38.90
75500;DHT22;64076;51.466;7.260;2023-04-24T05:27:53;22.00;38.80
75500;DHT22;64076;51.466;7.260;2023-04-24T05:30:19;22.10;38.50
75500;DHT22;64076;51.466;7.260;2023-04-24T05:32:45;22.10;38.50
75500;DHT22;64076;51.466;7.260;2023-04-24T05:35:10;22.10;38.30
75500;DHT22;64076;51.466;7.260;2023-04-24T05:37:36;22.10;38.30
75500;DHT22;64076;51.466;7.260;2023-04-24T05:40:02;22.10;38.30
75500;DHT22;64076;51.466;7.260;2023-04-24T05:42:29;22.10;38.10
75500;DHT22;64076;51.466;7.260;2023-04-24T05:44:55;22.10;38.10
75500;DHT22;64076;51.466;7.260;2023-04-24T05:47:20;22.10;38.20
75500;DHT22;64076;51.466;7.260;2023-04-24T05:49:47;22.10;38.30
75500;DHT22;64076;51.466;7.260;2023-04-24T05:52:13;22.10;38.30
75500;DHT22;64076;51.466;7.260;2023-04-24T05:54:38;22.10;38.40
75500;DHT22;64076;51.466;7.260;2023-04-24T05:57:04;22.10;38.50
75500;DHT22;64076;51.466;7.260;2023-04-24T05:59:33;22.10;38.50
75500;DHT22;64076;51.466;7.260;2023-04-24T06:01:59;22.10;38.60
75500;DHT22;64076;51.466;7.260;2023-04-24T06:04:25;22.10;38.60
75500;DHT22;64076;51.466;7.260;2023-04-24T06:06:50;22.10;38.70
75500;DHT22;64076;51.466;7.260;2023-04-24T06:09:24;22.10;38.70
75500;DHT22;64076;51.466;7.260;2023-04-24T06:11:49;22.10;38.70
75500;DHT22;64076;51.466;7.260;2023-04-24T06:14:18;22.10;38.70
75500;DHT22;64076;51.466;7.260;2023-04-24T06:16:43;22.10;38.80
75500;DHT22;64076;51.466;7.260;2023-04-24T06:19:09;22.10;38.80
75500;DHT22;64076;51.466;7.260;2023-04-24T06:21:34;22.10;38.80
75500;DHT22;64076;51.466;7.260;2023-04-24T06:24:00;22.10;38.70
75500;DHT22;64076;51.466;7.260;2023-04-24T06:26:26;22.10;38.80
75500;DHT22;64076;51.466;7.260;2023-04-24T06:28:52;22.10;38.80
75500;DHT22;64076;51.466;7.260;2023-04-24T06:31:19;22.10;39.00
75500;DHT22;64076;51.466;7.260;2023-04-24T06:33:45;22.10;39.00
75500;DHT22;64076;51.466;7.260;2023-04-24T06:36:12;22.20;38.70
75500;DHT22;64076;51.466;7.260;2023-04-24T06:38:38;22.20;38.70
75500;DHT22;64076;51.466;7.260;2023-04-24T06:41:03;22.20;38.70
75500;DHT22;64076;51.466;7.260;2023-04-24T06:43:31;22.20;38.60
75500;DHT22;64076;51.466;7.260;2023-04-24T06:45:57;22.20;38.60
75500;DHT22;64076;51.466;7.260;2023-04-24T06:48:24;22.20;38.50
75500;DHT22;64076;51.466;7.260;2023-04-24T06:50:50;22.20;38.50
75500;DHT22;64076;51.466;7.260;2023-04-24T06:53:15;22.20;38.50
75500;DHT22;64076;51.466;7.260;2023-04-24T06:55:41;22.20;38.50
75500;DHT22;64076;51.466;7.260;2023-04-24T06:58:08;22.30;38.50
75500;DHT22;64076;51.466;7.260;2023-04-24T07:00:34;22.30;38.50
75500;DHT22;64076;51.466;7.260;2023-04-24T07:02:59;22.30;38.50
75500;DHT22;64076;51.466;7.260;2023-04-24T07:05:25;22.30;38.60
75500;DHT22;64076;51.466;7.260;2023-04-24T07:07:50;22.30;38.60
75500;DHT22;64076;51.466;7.260;2023-04-24T19:20:55;22.50;38.90
75500;DHT22;64076;51.466;7.260;2023-04-24T19:23:20;22.80;36.10
75500;DHT22;64076;51.466;7.260;2023-04-24T19:25:47;22.70;36.10
75500;DHT22;64076;51.466;7.260;2023-04-24T19:45:17;22.70;36.10
75500;DHT22;64076;51.466;7.260;2023-04-24T19:47:43;22.60;35.90
75500;DHT22;64076;51.466;7.260;2023-04-24T19:50:08;22.60;35.90
75500;DHT22;64076;51.466;7.260;2023-04-24T19:52:34;22.60;36.00
75500;DHT22;64076;51.466;7.260;2023-04-24T19:55:00;22.60;36.00
75500;DHT22;64076;51.466;7.260;2023-04-24T19:57:25;22.60;36.00
75500;DHT22;64076;51.466;7.260;2023-04-24T20:09:35;22.60;35.90
75500;DHT22;64076;51.466;7.260;2023-04-24T20:12:00;22.50;35.90
75500;DHT22;64076;51.466;7.260;2023-04-24T20:16:56;22.50;35.90
75500;DHT22;64076;51.466;7.260;2023-04-24T20:19:21;22.50;35.90
75500;DHT22;64076;51.466;7.260;2023-04-24T20:21:47;22.50;35.90
75500;DHT22;64076;51.466;7.260;2023-04-24T20:24:13;22.50;35.90
75500;DHT22;64076;51.466;7.260;2023-04-24T20:26:40;22.50;35.90
75500;DHT22;64076;51.466;7.260;2023-04-24T20:29:06;22.50;35.90
75500;DHT22;64076;51.466;7.260;2023-04-24T20:31:33;22.50;35.90
75500;DHT22;64076;51.466;7.260;2023-04-24T20:33:59;22.40;35.90
75500;DHT22;64076;51.466;7.260;2023-04-24T20:36:24;22.40;35.90
75500;DHT22;64076;51.466;7.260;2023-04-24T20:38:51;22.40;35.90
75500;DHT22;64076;51.466;7.260;2023-04-24T20:41:17;22.40;35.90
75500;DHT22;64076;51.466;7.260;2023-04-24T20:43:43;22.40;35.90
75500;DHT22;64076;51.466;7.260;2023-04-24T20:46:09;22.40;35.90
75500;DHT22;64076;51.466;7.260;2023-04-24T20:48:35;22.40;35.90
75500;DHT22;64076;51.466;7.260;2023-04-24T20:51:00;22.40;35.90
75500;DHT22;64076;51.466;7.260;2023-04-24T20:53:26;22.40;35.90
75500;DHT22;64076;51.466;7.260;2023-04-24T20:55:52;22.40;35.90
75500;DHT22;64076;51.466;7.260;2023-04-24T20:58:17;22.40;35.80
75500;DHT22;64076;51.466;7.260;2023-04-24T21:00:45;22.30;35.80
75500;DHT22;64076;51.466;7.260;2023-04-24T21:03:11;22.30;35.80
75500;DHT22;64076;51.466;7.260;2023-04-24T21:05:36;22.30;35.80
75500;DHT22;64076;51.466;7.260;2023-04-24T21:08:02;22.30;35.80
75500;DHT22;64076;51.466;7.260;2023-04-24T21:10:28;22.30;35.80
75500;DHT22;64076;51.466;7.260;2023-04-24T21:12:53;22.30;35.80
75500;DHT22;64076;51.466;7.260;2023-04-24T21:15:19;22.30;35.80
75500;DHT22;64076;51.466;7.260;2023-04-24T21:17:45;22.30;35.80
75500;DHT22;64076;51.466;7.260;2023-04-24T21:20:10;22.30;35.80
75500;DHT22;64076;51.466;7.260;2023-04-24T21:22:36;22.30;35.70
75500;DHT22;64076;51.466;7.260;2023-04-24T21:25:02;22.30;35.80
75500;DHT22;64076;51.466;7.260;2023-04-24T21:27:28;22.30;35.80
75500;DHT22;64076;51.466;7.260;2023-04-24T21:29:53;22.30;35.70
75500;DHT22;64076;51.466;7.260;2023-04-24T21:32:19;22.20;35.70
75500;DHT22;64076;51.466;7.260;2023-04-24T21:34:45;22.30;35.70
75500;DHT22;64076;51.466;7.260;2023-04-24T21:37:11;22.20;35.70
75500;DHT22;64076;51.466;7.260;2023-04-24T21:39:37;22.20;35.70
75500;DHT22;64076;51.466;7.260;2023-04-24T21:42:03;22.20;35.70
75500;DHT22;64076;51.466;7.260;2023-04-24T21:44:28;22.20;35.70
75500;DHT22;64076;51.466;7.260;2023-04-24T21:46:54;22.20;35.70
75500;DHT22;64076;51.466;7.260;2023-04-24T21:49:20;22.20;35.70
75500;DHT22;64076;51.466;7.260;2023-04-24T21:51:46;22.20;35.70
75500;DHT22;64076;51.466;7.260;2023-04-24T21:54:11;22.20;35.70
75500;DHT22;64076;51.466;7.260;2023-04-24T21:56:38;22.20;35.70
75500;DHT22;64076;51.466;7.260;2023-04-24T21:59:03;22.20;35.70
75500;DHT22;64076;51.466;7.260;2023-04-24T22:01:29;22.20;35.70
75500;DHT22;64076;51.466;7.260;2023-04-24T22:03:57;22.20;35.70
75500;DHT22;64076;51.466;7.260;2023-04-24T22:06:22;22.10;35.70
75500;DHT22;64076;51.466;7.260;2023-04-24T22:08:48;22.10;35.60
75500;DHT22;64076;51.466;7.260;2023-04-24T22:11:14;22.10;35.70
75500;DHT22;64076;51.466;7.260;2023-04-24T22:13:40;22.10;35.60
75500;DHT22;64076;51.466;7.260;2023-04-24T22:16:05;22.10;35.70
75500;DHT22;64076;51.466;7.260;2023-04-24T22:18:31;22.10;35.60
75500;DHT22;64076;51.466;7.260;2023-04-24T22:20:56;22.10;35.60
75500;DHT22;64076;51.466;7.260;2023-04-24T22:23:23;22.10;35.60
75500;DHT22;64076;51.466;7.260;2023-04-24T22:25:48;22.10;35.60
75500;DHT22;64076;51.466;7.260;2023-04-24T22:28:14;22.10;35.60
75500;DHT22;64076;51.466;7.260;2023-04-24T22:30:39;22.10;35.60
75500;DHT22;64076;51.466;7.260;2023-04-24T22:33:05;22.10;35.60
75500;DHT22;64076;51.466;7.260;2023-04-24T22:35:30;22.10;35.60
75500;DHT22;64076;51.466;7.260;2023-04-24T22:37:57;22.10;35.60
75500;DHT22;64076;51.466;7.260;2023-04-24T22:40:24;22.00;35.60
75500;DHT22;64076;51.466;7.260;2023-04-24T22:42:49;22.10;35.60
75500;DHT22;64076;51.466;7.260;2023-04-24T22:45:15;22.00;35.60
75500;DHT22;64076;51.466;7.260;2023-04-24T22:47:41;22.00;35.60
75500;DHT22;64076;51.466;7.260;2023-04-24T22:50:08;22.00;35.50
75500;DHT22;64076;51.466;7.260;2023-04-24T22:52:35;22.00;35.50
75500;DHT22;64076;51.466;7.260;2023-04-24T22:55:01;22.00;35.50
75500;DHT22;64076;51.466;7.260;2023-04-24T22:57:29;22.00;35.50
75500;DHT22;64076;51.466;7.260;2023-04-24T22:59:55;22.00;35.50
75500;DHT22;64076;51.466;7.260;2023-04-24T23:02:22;22.00;35.50
75500;DHT22;64076;51.466;7.260;2023-04-24T23:04:47;22.00;35.50
75500;DHT22;64076;51.466;7.260;2023-04-24T23:07:13;22.00;35.50
75500;DHT22;64076;51.466;7.260;2023-04-24T23:09:39;22.00;35.50
75500;DHT22;64076;51.466;7.260;2023-04-24T23:12:05;22.00;35.50
75500;DHT22;64076;51.466;7.260;2023-04-24T23:14:30;22.00;35.50
75500;DHT22;64076;51.466;7.260;2023-04-24T23:16:56;22.00;35.50
75500;DHT22;64076;51.466;7.260;2023-04-24T23:19:22;22.00;35.50
75500;DHT22;64076;51.466;7.260;2023-04-24T23:21:48;22.00;35.50
75500;DHT22;64076;51.466;7.260;2023-04-24T23:24:14;21.90;35.50
75500;DHT22;64076;51.466;7.260;2023-04-24T23:26:40;21.90;35.40
75500;DHT22;64076;51.466;7.260;2023-04-24T23:29:05;21.90;35.40
75500;DHT22;64076;51.466;7.260;2023-04-24T23:31:31;21.90;35.40
75500;DHT22;64076;51.466;7.260;2023-04-24T23:33:56;21.90;35.50
75500;DHT22;64076;51.466;7.260;2023-04-24T23:36:24;21.90;35.50
75500;DHT22;64076;51.466;7.260;2023-04-24T23:38:50;21.90;35.40
75500;DHT22;64076;51.466;7.260;2023-04-24T23:41:16;21.90;35.40
75500;DHT22;64076;51.466;7.260;2023-04-24T23:43:42;21.90;35.50
75500;DHT22;64076;51.466;7.260;2023-04-24T23:46:07;21.90;35.50
75500;DHT22;64076;51.466;7.260;2023-04-24T23:48:33;21.90;35.50
75500;DHT22;64076;51.466;7.260;2023-04-24T23:50:58;21.90;35.50
75500;DHT22;64076;51.466;7.260;2023-04-24T23:55:50;21.90;35.40
75500;DHT22;64076;51.466;7.260;2023-04-24T23:58:16;21.90;35.40
